Time;durP1;ratioP1;P1;durP2;ratioP2;P2;SDS_P1;SDS_P2;PMS_P1;PMS_P2;Temp;Humidity;BMP_temperature;BMP_pressure;BME280_temperature;BME280_humidity;BME280_pressure;Samples;Min_cycle;Max_cycle;Signal;HPM_P1;HPM_P2
2024/01/28 00:01:30;;;;;;;;;;;;;;;5.98;74.14;102734.59;5095153;28;19916;-77
2024/01/28 00:04:19;;;;;;;;;;;;;;;6.17;76.19;102730.69;5104428;28;19920;-76
2024/01/28 00:07:11;;;;;;;;;;;;;;;6.11;74.41;102738.91;5101621;28;20312;-77
2024/01/28 00:10:03;;;;;;;;;;;;;;;6.03;73.81;102739.28;5094676;28;20808;-77
2024/01/28 00:12:51;;;;;;;;;;;;;;;6.07;73.80;102748.56;5100722;28;19912;-77
2024/01/28 00:15:43;;;;;;;;;;;;;;;5.97;73.62;102749.13;5099619;28;20411;-77
2024/01/28 00:18:33;;;;;;;;;;;;;;;5.88;73.42;102737.06;5092917;28;19912;-76
2024/01/28 00:21:24;;;;;;;;;;;;;;;5.86;74.39;102731.84;5096648;28;20369;-77
2024/01/28 00:24:21;;;;;;;;;;;;;;;5.90;74.11;102730.34;5095519;28;19916;-76
2024/01/28 00:27:13;;;;;;;;;;;;;;;5.90;73.92;102740.31;5093629;28;19912;-76
2024/01/28 00:30:05;;;;;;;;;;;;;;;5.88;72.97;102745.97;5096884;28;19912;-76
2024/01/28 00:32:55;;;;;;;;;;;;;;;5.88;73.02;102735.19;5094368;28;19916;-76
2024/01/28 00:35:47;;;;;;;;;;;;;;;5.78;73.89;102750.28;5092223;28;20384;-77
2024/01/28 00:38:39;;;;;;;;;;;;;;;5.84;74.40;102744.75;5095662;28;19916;-77
2024/01/28 00:41:32;;;;;;;;;;;;;;;5.93;74.17;102754.19;5093118;28;20292;-77
2024/01/28 00:44:18;;;;;;;;;;;;;;;5.85;73.34;102754.50;5096261;28;19916;-76
2024/01/28 00:47:10;;;;;;;;;;;;;;;5.96;74.32;102753.72;5094649;28;19912;-77
2024/01/28 00:50:02;;;;;;;;;;;;;;;5.97;73.68;102757.25;5092502;28;20447;-76
2024/01/28 00:52:54;;;;;;;;;;;;;;;6.00;73.41;102754.06;5096176;28;19916;-75
2024/01/28 00:55:46;;;;;;;;;;;;;;;5.94;73.14;102766.63;5094073;28;19920;-77
2024/01/28 00:58:35;;;;;;;;;;;;;;;5.89;72.83;102752.19;5097672;28;19916;-76
2024/01/28 01:01:27;;;;;;;;;;;;;;;5.87;73.62;102760.53;5095271;28;19912;-77
2024/01/28 01:04:19;;;;;;;;;;;;;;;5.91;72.69;102755.47;5092876;28;19938;-76
2024/01/28 01:07:09;;;;;;;;;;;;;;;5.88;72.32;102761.34;5094982;28;20551;-76
2024/01/28 01:10:01;;;;;;;;;;;;;;;5.77;72.51;102764.81;5095191;28;19911;-77
2024/01/28 01:12:53;;;;;;;;;;;;;;;5.87;73.75;102759.69;5092814;28;19915;-76
2024/01/28 01:15:45;;;;;;;;;;;;;;;5.92;73.45;102768.75;5096193;28;19912;-75
2024/01/28 01:18:35;;;;;;;;;;;;;;;5.97;73.66;102773.44;5093010;28;20272;-76
2024/01/28 01:21:27;;;;;;;;;;;;;;;5.90;73.42;102780.81;5097671;28;19912;-76
2024/01/28 01:24:16;;;;;;;;;;;;;;;5.81;73.41;102791.13;5095669;28;19916;-76
2024/01/28 01:27:08;;;;;;;;;;;;;;;5.88;73.44;102794.56;5092566;28;19920;-77
2024/01/28 01:30:01;;;;;;;;;;;;;;;5.84;73.81;102787.94;5098025;28;19912;-77
2024/01/28 01:32:50;;;;;;;;;;;;;;;5.83;72.89;102791.72;5098715;28;19912;-77
2024/01/28 01:35:45;;;;;;;;;;;;;;;5.74;72.82;102790.38;5102526;28;19912;-76
2024/01/28 01:38:37;;;;;;;;;;;;;;;5.62;73.29;102781.47;5100004;28;19911;-76
2024/01/28 01:41:27;;;;;;;;;;;;;;;5.54;72.98;102782.59;5098246;28;19919;-76
2024/01/28 01:44:16;;;;;;;;;;;;;;;5.58;72.79;102783.81;5101472;28;19924;-77
2024/01/28 01:47:08;;;;;;;;;;;;;;;5.68;72.87;102787.81;5098018;28;19911;-76
2024/01/28 01:50:00;;;;;;;;;;;;;;;5.65;72.48;102788.25;5094549;28;19916;-76
2024/01/28 01:52:52;;;;;;;;;;;;;;;5.63;72.69;102790.38;5099226;28;20387;-76
2024/01/28 01:55:44;;;;;;;;;;;;;;;5.65;72.30;102793.66;5090998;28;19911;-77
2024/01/28 01:58:37;;;;;;;;;;;;;;;5.60;72.30;102791.66;5082992;28;20304;-77
2024/01/28 02:01:27;;;;;;;;;;;;;;;5.64;71.86;102800.91;5097833;28;19915;-76
2024/01/28 02:04:19;;;;;;;;;;;;;;;5.66;72.05;102796.13;5097463;28;20308;-77
2024/01/28 02:07:11;;;;;;;;;;;;;;;5.67;72.24;102789.69;5095518;28;19923;-77
2024/01/28 02:10:03;;;;;;;;;;;;;;;5.55;72.91;102789.66;5098818;28;19912;-76
2024/01/28 02:12:55;;;;;;;;;;;;;;;5.54;72.59;102787.16;5093965;28;19916;-79
2024/01/28 02:15:47;;;;;;;;;;;;;;;5.58;72.60;102783.81;5096835;28;19911;-77
2024/01/28 02:18:36;;;;;;;;;;;;;;;5.42;72.49;102789.03;5093870;28;20423;-76
2024/01/28 02:21:33;;;;;;;;;;;;;;;5.34;72.55;102781.25;5091171;28;19919;-76
2024/01/28 02:24:25;;;;;;;;;;;;;;;5.24;72.94;102781.78;5098981;28;19916;-76
2024/01/28 02:27:18;;;;;;;;;;;;;;;5.03;74.40;102782.28;5096953;28;19912;-77
2024/01/28 02:30:10;;;;;;;;;;;;;;;5.05;74.22;102775.63;5100507;28;20733;-77
2024/01/28 02:33:02;;;;;;;;;;;;;;;5.07;74.30;102775.41;5098006;28;19915;-77
2024/01/28 02:35:54;;;;;;;;;;;;;;;5.13;73.39;102775.31;5095269;28;19912;-77
2024/01/28 02:38:51;;;;;;;;;;;;;;;5.02;73.05;102768.00;5098887;28;19916;-78
2024/01/28 02:41:42;;;;;;;;;;;;;;;5.18;74.18;102760.34;5100712;28;19912;-77
2024/01/28 02:44:34;;;;;;;;;;;;;;;5.18;73.64;102760.34;5094354;28;19916;-77
2024/01/28 02:47:26;;;;;;;;;;;;;;;5.09;73.07;102757.94;5096213;28;19915;-77
2024/01/28 02:50:16;;;;;;;;;;;;;;;5.08;74.32;102758.97;5096165;28;19911;-77
2024/01/28 02:53:06;;;;;;;;;;;;;;;5.16;73.91;102757.84;5098912;28;20292;-77
2024/01/28 02:56:00;;;;;;;;;;;;;;;5.23;74.00;102757.78;5097033;28;19912;-77
2024/01/28 02:58:47;;;;;;;;;;;;;;;5.05;72.77;102758.63;5095675;28;19916;-78
2024/01/28 03:01:45;;;;;;;;;;;;;;;4.90;73.33;102753.63;5099524;28;19912;-78
2024/01/28 03:04:40;;;;;;;;;;;;;;;4.84;72.46;102757.25;5096717;28;20316;-78
2024/01/28 03:07:32;;;;;;;;;;;;;;;4.66;72.50;102751.88;5094199;28;19916;-77
2024/01/28 03:10:21;;;;;;;;;;;;;;;4.70;73.19;102753.91;5097547;28;19912;-77
2024/01/28 03:13:13;;;;;;;;;;;;;;;4.71;72.70;102749.34;5095752;28;19912;-76
2024/01/28 03:16:05;;;;;;;;;;;;;;;4.57;72.44;102754.03;5098847;28;19912;-76
2024/01/28 03:18:57;;;;;;;;;;;;;;;4.45;72.67;102755.03;5097230;28;19916;-77
2024/01/28 03:21:49;;;;;;;;;;;;;;;4.40;72.65;102757.56;5094873;28;20304;-76
2024/01/28 03:24:41;;;;;;;;;;;;;;;4.50;71.83;102760.56;5098284;28;19916;-76
2024/01/28 03:27:32;;;;;;;;;;;;;;;4.59;70.35;102756.50;5095143;28;19916;-76
2024/01/28 03:30:24;;;;;;;;;;;;;;;4.56;68.82;102751.59;5093877;28;20300;-79
2024/01/28 03:33:16;;;;;;;;;;;;;;;4.48;69.76;102744.59;5098073;28;19912;-77
2024/01/28 03:36:12;;;;;;;;;;;;;;;4.49;70.55;102745.44;5095093;28;19912;-76
2024/01/28 03:39:01;;;;;;;;;;;;;;;4.48;70.34;102744.59;5099814;28;19912;-76
2024/01/28 03:41:51;;;;;;;;;;;;;;;4.42;69.56;102748.19;5097195;28;19915;-76
2024/01/28 03:44:40;;;;;;;;;;;;;;;4.40;69.27;102744.09;5094439;28;19920;-76
2024/01/28 03:47:32;;;;;;;;;;;;;;;4.37;69.10;102753.44;5095289;28;19975;-77
2024/01/28 03:50:24;;;;;;;;;;;;;;;4.35;69.02;102743.94;5096579;28;19911;-77
2024/01/28 03:53:16;;;;;;;;;;;;;;;4.21;68.69;102743.28;5093024;28;19912;-77
2024/01/28 03:56:09;;;;;;;;;;;;;;;4.05;68.83;102744.66;5096793;28;19916;-77
2024/01/28 03:58:58;;;;;;;;;;;;;;;3.96;68.87;102740.63;5095021;28;19912;-77
2024/01/28 04:01:50;;;;;;;;;;;;;;;3.90;70.09;102740.66;5099082;28;19912;-77
2024/01/28 04:04:40;;;;;;;;;;;;;;;3.97;69.55;102744.94;5096222;28;20383;-77
2024/01/28 04:07:29;;;;;;;;;;;;;;;4.05;69.24;102743.84;5094396;28;19919;-77
2024/01/28 04:10:21;;;;;;;;;;;;;;;4.10;68.67;102746.69;5098041;28;19912;-76
2024/01/28 04:13:13;;;;;;;;;;;;;;;4.13;68.60;102749.75;5095728;28;19912;-76
2024/01/28 04:16:03;;;;;;;;;;;;;;;3.93;69.52;102761.75;5092829;28;19912;-77
2024/01/28 04:18:55;;;;;;;;;;;;;;;4.12;71.07;102775.03;5097232;28;19912;-77
2024/01/28 04:21:47;;;;;;;;;;;;;;;4.12;70.16;102766.94;5095366;28;20367;-77
2024/01/28 04:24:39;;;;;;;;;;;;;;;3.99;70.24;102755.50;5098215;28;19916;-76
2024/01/28 04:27:31;;;;;;;;;;;;;;;3.97;70.08;102763.78;5093994;28;19912;-77
2024/01/28 04:30:23;;;;;;;;;;;;;;;3.92;70.18;102776.25;5094135;28;19911;-77
2024/01/28 04:33:15;;;;;;;;;;;;;;;3.88;71.56;102781.25;5097847;28;19915;-76
2024/01/28 04:36:07;;;;;;;;;;;;;;;4.10;72.17;102785.19;5095257;28;19912;-77
2024/01/28 04:38:59;;;;;;;;;;;;;;;4.02;73.90;102785.47;5087530;28;19920;-76
2024/01/28 04:41:51;;;;;;;;;;;;;;;4.21;74.55;102780.97;5097462;28;19938;-77
2024/01/28 04:44:42;;;;;;;;;;;;;;;4.14;73.38;102775.63;5094525;28;19912;-76
2024/01/28 04:47:34;;;;;;;;;;;;;;;4.29;74.16;102781.50;5092779;28;19916;-76
2024/01/28 04:50:24;;;;;;;;;;;;;;;4.22;73.59;102788.81;5096391;28;19912;-76
2024/01/28 04:53:11;;;;;;;;;;;;;;;4.00;74.05;102779.50;5093484;28;19912;-77
2024/01/28 04:56:03;;;;;;;;;;;;;;;3.96;74.98;102778.28;5092182;28;20446;-76
2024/01/28 04:58:54;;;;;;;;;;;;;;;3.91;75.79;102786.22;5088570;28;19916;-76
2024/01/28 05:01:44;;;;;;;;;;;;;;;3.79;76.49;102787.94;5085867;28;19912;-76
2024/01/28 05:04:36;;;;;;;;;;;;;;;3.87;76.90;102791.19;5097505;28;19912;-76
2024/01/28 05:07:28;;;;;;;;;;;;;;;3.75;76.71;102798.34;5094645;28;19912;-77
2024/01/28 05:10:22;;;;;;;;;;;;;;;3.95;77.97;102806.25;5092572;28;20285;-77
2024/01/28 05:13:13;;;;;;;;;;;;;;;4.01;77.90;102807.25;5095093;28;19911;-77
2024/01/28 05:16:06;;;;;;;;;;;;;;;4.01;78.44;102805.38;5089481;28;20380;-78
2024/01/28 05:18:57;;;;;;;;;;;;;;;3.92;78.10;102805.84;5094288;28;19912;-77
2024/01/28 05:21:49;;;;;;;;;;;;;;;3.96;78.40;102812.47;5093892;28;19920;-77
2024/01/28 05:24:39;;;;;;;;;;;;;;;3.99;78.71;102812.00;5092985;28;19915;-77
2024/01/28 05:27:31;;;;;;;;;;;;;;;4.08;79.42;102816.06;5093597;28;19912;-76
2024/01/28 05:30:23;;;;;;;;;;;;;;;4.01;78.92;102826.09;5095215;28;19912;-77
2024/01/28 05:33:12;;;;;;;;;;;;;;;4.27;79.55;102826.66;5098346;28;19916;-77
2024/01/28 05:36:04;;;;;;;;;;;;;;;4.37;79.15;102822.66;5095133;28;20380;-77
2024/01/28 05:38:54;;;;;;;;;;;;;;;4.54;78.37;102835.31;5087951;28;20373;-76
2024/01/28 05:41:46;;;;;;;;;;;;;;;4.47;78.12;102837.25;5093940;28;19916;-76
2024/01/28 05:44:38;;;;;;;;;;;;;;;4.42;77.04;102844.38;5095954;28;19912;-79
2024/01/28 05:47:30;;;;;;;;;;;;;;;4.32;77.56;102839.44;5094066;28;19920;-76
2024/01/28 05:50:19;;;;;;;;;;;;;;;4.27;77.91;102844.69;5097835;28;19916;-78
2024/01/28 05:53:14;;;;;;;;;;;;;;;4.55;79.89;102852.31;5091356;28;19912;-77
2024/01/28 05:56:06;;;;;;;;;;;;;;;4.22;77.52;102855.28;5086159;28;19915;-76
2024/01/28 05:58:56;;;;;;;;;;;;;;;4.07;78.15;102857.47;5089083;28;19912;-76
2024/01/28 06:01:48;;;;;;;;;;;;;;;4.13;79.58;102860.13;5088944;28;19911;-77
2024/01/28 06:04:40;;;;;;;;;;;;;;;4.02;78.53;102863.53;5083198;28;19911;-77
2024/01/28 06:07:32;;;;;;;;;;;;;;;4.03;78.99;102865.19;5091414;28;19916;-78
2024/01/28 06:10:24;;;;;;;;;;;;;;;4.03;78.83;102859.78;5092790;28;19912;-78
2024/01/28 06:13:16;;;;;;;;;;;;;;;3.96;79.36;102863.59;5096391;28;20300;-78
2024/01/28 06:16:06;;;;;;;;;;;;;;;3.96;79.71;102861.72;5090530;28;19916;-78
2024/01/28 06:18:58;;;;;;;;;;;;;;;4.04;79.54;102872.22;5094780;28;20376;-76
2024/01/28 06:21:50;;;;;;;;;;;;;;;4.10;79.84;102863.28;5096640;28;19915;-78
2024/01/28 06:24:42;;;;;;;;;;;;;;;3.95;79.40;102876.22;5096965;28;19916;-77
2024/01/28 06:27:34;;;;;;;;;;;;;;;4.04;80.13;102877.59;5095287;28;19912;-77
2024/01/28 06:30:31;;;;;;;;;;;;;;;4.09;79.06;102885.84;5098262;28;19912;-77
2024/01/28 06:33:22;;;;;;;;;;;;;;;4.15;79.12;102878.78;5095507;28;19912;-77
2024/01/28 06:36:19;;;;;;;;;;;;;;;4.08;78.98;102889.56;5099320;28;19911;-77
2024/01/28 06:39:11;;;;;;;;;;;;;;;4.04;78.48;102887.53;5097636;28;19916;-77
2024/01/28 06:42:03;;;;;;;;;;;;;;;4.04;78.66;102891.06;5094752;28;19916;-77
2024/01/28 06:44:55;;;;;;;;;;;;;;;4.07;79.08;102887.91;5097869;28;19912;-77
2024/01/28 06:47:44;;;;;;;;;;;;;;;4.12;78.98;102893.47;5095122;28;19911;-77
2024/01/28 06:50:36;;;;;;;;;;;;;;;4.10;79.09;102890.19;5100024;28;19912;-77
2024/01/28 06:53:28;;;;;;;;;;;;;;;3.99;79.10;102901.66;5098335;28;19916;-80
2024/01/28 06:56:20;;;;;;;;;;;;;;;3.97;79.60;102898.34;5097391;28;19912;-77
2024/01/28 06:59:12;;;;;;;;;;;;;;;4.00;79.27;102903.31;5101040;28;20299;-77
2024/01/28 07:02:02;;;;;;;;;;;;;;;4.16;79.31;102904.66;5098444;28;20284;-78
2024/01/28 07:04:54;;;;;;;;;;;;;;;4.02;78.85;102900.38;5093700;28;20388;-77
2024/01/28 07:07:46;;;;;;;;;;;;;;;4.04;79.25;102909.91;5094559;28;19912;-79
2024/01/28 07:10:38;;;;;;;;;;;;;;;4.05;79.96;102903.50;5096248;28;19912;-81
2024/01/28 07:13:30;;;;;;;;;;;;;;;3.80;80.37;102911.50;5094219;28;19920;-81
2024/01/28 07:16:20;;;;;;;;;;;;;;;3.16;82.10;102918.81;5098796;28;19912;-82
2024/01/28 07:19:12;;;;;;;;;;;;;;;2.64;83.83;102927.84;5095943;28;19916;-83
2024/01/28 07:22:05;;;;;;;;;;;;;;;2.15;88.36;102921.00;5099535;28;19915;-82
2024/01/28 07:24:57;;;;;;;;;;;;;;;2.07;90.34;102927.41;5101688;28;19912;-81
2024/01/28 07:27:46;;;;;;;;;;;;;;;1.94;93.32;102929.22;5095965;28;20373;-81
2024/01/28 07:30:38;;;;;;;;;;;;;;;2.35;95.03;102929.88;5101822;28;20316;-82
2024/01/28 07:33:30;;;;;;;;;;;;;;;2.36;95.14;102936.91;5101443;28;19916;-80
2024/01/28 07:36:22;;;;;;;;;;;;;;;2.57;94.58;102936.72;5098799;28;19912;-79
2024/01/28 07:39:12;;;;;;;;;;;;;;;2.57;93.98;102935.88;5092883;28;19912;-81
2024/01/28 07:42:04;;;;;;;;;;;;;;;3.04;94.08;102944.72;5094580;28;19912;-82
2024/01/28 07:44:53;;;;;;;;;;;;;;;3.25;92.71;102950.63;5100118;28;19912;-80
2024/01/28 07:47:43;;;;;;;;;;;;;;;3.41;91.10;102955.56;5094821;28;20373;-81
2024/01/28 07:50:35;;;;;;;;;;;;;;;3.59;90.34;102946.81;5095330;28;19912;-82
2024/01/28 07:53:26;;;;;;;;;;;;;;;3.64;88.90;102954.22;5100918;28;19912;-82
2024/01/28 07:56:18;;;;;;;;;;;;;;;3.56;88.07;102947.22;5098181;28;19912;-81
2024/01/28 07:59:07;;;;;;;;;;;;;;;3.49;87.23;102954.50;5099768;28;19919;-80
2024/01/28 08:02:04;;;;;;;;;;;;;;;3.42;87.42;102953.69;5097999;28;19912;-80
2024/01/28 08:04:54;;;;;;;;;;;;;;;3.28;88.50;102958.28;5099879;28;19911;-82
2024/01/28 08:07:46;;;;;;;;;;;;;;;3.55;89.09;102958.22;5094503;28;20388;-83
2024/01/28 08:10:38;;;;;;;;;;;;;;;3.84;88.24;102954.97;5096299;28;19912;-81
2024/01/28 08:13:30;;;;;;;;;;;;;;;3.95;85.82;102954.28;5099818;28;19915;-82
2024/01/28 08:16:22;;;;;;;;;;;;;;;3.88;84.77;102958.88;5091753;28;20377;-84
2024/01/28 08:19:13;;;;;;;;;;;;;;;4.00;84.23;102956.31;5100194;28;19915;-84
2024/01/28 08:22:05;;;;;;;;;;;;;;;3.94;85.84;102952.63;5099159;28;19912;-82
2024/01/28 08:24:57;;;;;;;;;;;;;;;3.99;85.48;102952.81;5099621;28;20384;-82
2024/01/28 08:27:48;;;;;;;;;;;;;;;3.94;85.25;102962.56;5093262;28;19923;-80
2024/01/28 08:30:37;;;;;;;;;;;;;;;3.96;83.92;102965.88;5098162;28;20384;-80
2024/01/28 08:33:29;;;;;;;;;;;;;;;3.70;83.92;102967.66;5095050;28;19912;-82
2024/01/28 08:36:18;;;;;;;;;;;;;;;3.54;83.86;102967.31;5093016;28;19916;-79
2024/01/28 08:39:09;;;;;;;;;;;;;;;3.45;82.99;102967.53;5097820;28;19915;-81
2024/01/28 08:42:02;;;;;;;;;;;;;;;3.58;85.39;102968.53;5094757;28;19916;-80
2024/01/28 08:44:54;;;;;;;;;;;;;;;3.75;84.72;102972.41;5092430;28;20347;-80
2024/01/28 08:47:46;;;;;;;;;;;;;;;3.73;85.23;102974.47;5094643;28;19928;-82
2024/01/28 08:50:42;;;;;;;;;;;;;;;4.12;83.99;102976.94;5094204;28;19924;-80
2024/01/28 08:53:34;;;;;;;;;;;;;;;4.66;82.71;102972.84;5083092;28;19913;-81
2024/01/28 08:56:29;;;;;;;;;;;;;;;4.45;81.38;102975.91;5094452;28;19911;-80
2024/01/28 08:59:23;;;;;;;;;;;;;;;4.42;79.95;102981.72;5099268;28;20404;-81
2024/01/28 09:02:15;;;;;;;;;;;;;;;4.34;81.71;102988.19;5095152;28;19916;-81
2024/01/28 09:05:07;;;;;;;;;;;;;;;4.23;80.80;102991.56;5088323;28;19912;-81
2024/01/28 09:07:57;;;;;;;;;;;;;;;4.06;83.28;102999.38;5099233;28;19924;-80
2024/01/28 09:10:46;;;;;;;;;;;;;;;4.34;81.99;102993.59;5110890;28;19912;-81
2024/01/28 09:13:36;;;;;;;;;;;;;;;4.56;82.90;103002.13;5095218;28;19912;-82
2024/01/28 09:16:23;;;;;;;;;;;;;;;4.69;82.87;102992.06;5098662;28;19916;-85
2024/01/28 09:19:12;;;;;;;;;;;;;;;4.61;80.67;103005.81;5100303;28;19920;-79
2024/01/28 09:22:01;;;;;;;;;;;;;;;5.15;82.12;102998.91;5097391;28;19916;-81
2024/01/28 09:24:50;;;;;;;;;;;;;;;4.84;80.61;102999.00;5099572;28;19915;-82
2024/01/28 09:27:42;;;;;;;;;;;;;;;4.93;80.27;103005.75;5093896;28;19916;-82
2024/01/28 09:30:34;;;;;;;;;;;;;;;4.29;80.15;103012.25;5099442;28;19912;-82
2024/01/28 09:33:26;;;;;;;;;;;;;;;4.68;79.53;103021.91;5097252;28;19912;-82
2024/01/28 09:36:15;;;;;;;;;;;;;;;4.46;80.67;103020.66;5084443;28;19919;-84
2024/01/28 09:39:08;;;;;;;;;;;;;;;4.48;80.74;103023.94;5094630;28;19911;-82
2024/01/28 09:42:01;;;;;;;;;;;;;;;4.63;81.75;103027.16;5096720;28;19915;-82
2024/01/28 09:44:49;;;;;;;;;;;;;;;5.50;79.44;103020.75;5102987;28;19912;-81
2024/01/28 09:47:39;;;;;;;;;;;;;;;5.06;79.80;103029.91;5093446;28;19916;-81
2024/01/28 09:50:29;;;;;;;;;;;;;;;5.74;75.65;103027.13;5099857;28;19912;-83
2024/01/28 09:53:21;;;;;;;;;;;;;;;6.28;73.13;103026.22;5103491;28;20030;-82
2024/01/28 09:56:13;;;;;;;;;;;;;;;5.84;73.84;103030.91;5102856;28;19916;-83
2024/01/28 09:59:04;;;;;;;;;;;;;;;5.69;75.42;103035.06;5100190;28;19911;-82
2024/01/28 10:01:54;;;;;;;;;;;;;;;5.41;78.66;103024.78;5123741;28;19912;-80
2024/01/28 10:04:45;;;;;;;;;;;;;;;5.25;79.70;103028.88;5119454;28;20369;-83
2024/01/28 10:07:39;;;;;;;;;;;;;;;5.21;79.94;103043.03;5095374;28;19916;-81
2024/01/28 10:10:31;;;;;;;;;;;;;;;5.05;81.35;103042.56;5117454;28;19911;-81
2024/01/28 10:13:21;;;;;;;;;;;;;;;5.10;80.93;103041.91;5105103;28;20288;-77
2024/01/28 10:16:13;;;;;;;;;;;;;;;5.14;80.98;103043.09;5105068;28;19912;-82
2024/01/28 10:18:58;;;;;;;;;;;;;;;5.16;81.03;103041.03;5104048;28;20304;-81
2024/01/28 10:21:48;;;;;;;;;;;;;;;5.15;80.18;103048.28;5108360;28;20292;-80
2024/01/28 10:24:41;;;;;;;;;;;;;;;5.13;80.46;103047.66;5103175;28;19916;-80
2024/01/28 10:27:30;;;;;;;;;;;;;;;5.18;79.93;103040.81;5097911;28;20304;-81
2024/01/28 10:30:22;;;;;;;;;;;;;;;5.22;79.87;103042.00;5103369;28;19912;-80
2024/01/28 10:33:12;;;;;;;;;;;;;;;5.32;79.93;103042.31;5109373;28;19912;-79
2024/01/28 10:36:08;;;;;;;;;;;;;;;5.35;80.04;103031.06;5122163;28;19912;-79
2024/01/28 10:39:03;;;;;;;;;;;;;;;5.45;80.67;103029.50;5077994;28;19917;-79
2024/01/28 10:41:54;;;;;;;;;;;;;;;5.50;80.23;103028.84;5075684;28;19913;-79
2024/01/28 10:44:46;;;;;;;;;;;;;;;5.51;80.07;103025.09;5115430;28;19920;-80
2024/01/28 10:47:35;;;;;;;;;;;;;;;5.50;80.38;103024.25;5107173;28;20392;-80
2024/01/28 10:50:28;;;;;;;;;;;;;;;5.62;79.94;103031.63;5104205;28;19912;-78
2024/01/28 10:53:20;;;;;;;;;;;;;;;5.83;79.41;103017.66;5111433;28;19911;-80
2024/01/28 10:56:12;;;;;;;;;;;;;;;5.87;78.95;103027.81;5100807;28;19912;-81
2024/01/28 10:59:01;;;;;;;;;;;;;;;5.83;79.28;103029.28;5102648;28;20311;-80
2024/01/28 11:01:48;;;;;;;;;;;;;;;5.79;79.32;103019.19;5097851;28;19924;-80
2024/01/28 11:04:39;;;;;;;;;;;;;;;5.78;79.61;103015.66;5119934;28;19916;-81
2024/01/28 11:07:28;;;;;;;;;;;;;;;5.87;79.22;103005.38;5108728;28;19916;-79
2024/01/28 11:10:18;;;;;;;;;;;;;;;6.08;78.61;103004.91;5113575;28;19915;-81
2024/01/28 11:13:11;;;;;;;;;;;;;;;6.29;78.26;103007.09;5120835;28;19916;-80
2024/01/28 11:16:03;;;;;;;;;;;;;;;6.44;77.39;103010.19;5099548;28;19916;-81
2024/01/28 11:19:00;;;;;;;;;;;;;;;6.45;77.35;103006.41;5087420;28;19912;-81
2024/01/28 11:21:53;;;;;;;;;;;;;;;6.70;78.21;102997.31;5106716;28;19912;-83
2024/01/28 11:25:09;;;;;;;;;;;;;;;6.86;76.99;102999.31;5099588;28;20369;-82
2024/01/28 11:28:05;;;;;;;;;;;;;;;6.92;76.76;102994.84;5095061;28;20377;-81
2024/01/28 11:30:57;;;;;;;;;;;;;;;7.05;75.72;102997.34;5101550;28;19911;-82
2024/01/28 11:33:55;;;;;;;;;;;;;;;7.31;75.33;102991.44;5101396;28;19915;-81
2024/01/28 11:36:45;;;;;;;;;;;;;;;7.43;74.31;102989.53;5098127;28;19912;-82
2024/01/28 11:39:43;;;;;;;;;;;;;;;7.49;72.98;102991.28;5101651;28;19912;-82
2024/01/28 11:42:33;;;;;;;;;;;;;;;7.54;73.57;102985.16;5101222;28;19931;-81
2024/01/28 11:45:25;;;;;;;;;;;;;;;7.69;73.45;102980.88;5101091;28;19912;-82
2024/01/28 11:48:17;;;;;;;;;;;;;;;7.79;72.74;102980.25;5101464;28;20280;-81
2024/01/28 11:51:06;;;;;;;;;;;;;;;7.96;72.49;102972.19;5101175;28;19911;-82
2024/01/28 11:53:59;;;;;;;;;;;;;;;8.08;72.16;102971.03;5096377;28;19911;-82
2024/01/28 11:56:48;;;;;;;;;;;;;;;8.35;72.00;102954.22;5097604;28;20384;-82
2024/01/28 11:59:40;;;;;;;;;;;;;;;8.47;70.23;102944.94;5101007;28;19927;-82
2024/01/28 12:02:32;;;;;;;;;;;;;;;8.69;69.20;102946.88;5100988;28;19912;-82
2024/01/28 12:05:22;;;;;;;;;;;;;;;8.91;70.13;102950.50;5100619;28;19912;-82
2024/01/28 12:08:14;;;;;;;;;;;;;;;9.02;68.93;102949.56;5100925;28;19916;-82
2024/01/28 12:11:06;;;;;;;;;;;;;;;9.24;68.24;102945.00;5100989;28;19911;-82
2024/01/28 12:13:55;;;;;;;;;;;;;;;9.42;67.68;102941.16;5099993;28;19920;-82
2024/01/28 12:16:47;;;;;;;;;;;;;;;9.54;66.75;102932.88;5097190;28;19911;-82
2024/01/28 12:19:39;;;;;;;;;;;;;;;9.69;66.27;102936.59;5100733;28;19916;-82
2024/01/28 12:22:29;;;;;;;;;;;;;;;9.79;66.09;102934.00;5099761;28;19912;-82
2024/01/28 12:25:24;;;;;;;;;;;;;;;10.00;65.62;102921.44;5100151;28;19924;-81
2024/01/28 12:28:16;;;;;;;;;;;;;;;10.07;64.86;102916.59;5100508;28;19915;-81
2024/01/28 12:31:06;;;;;;;;;;;;;;;10.20;64.26;102912.66;5100382;28;19912;-81
2024/01/28 12:33:58;;;;;;;;;;;;;;;10.33;64.54;102919.56;5100307;28;19920;-81
2024/01/28 12:36:50;;;;;;;;;;;;;;;10.44;63.61;102913.13;5096681;28;19912;-82
2024/01/28 12:39:39;;;;;;;;;;;;;;;10.53;62.66;102912.38;5100171;28;19912;-81
2024/01/28 12:42:29;;;;;;;;;;;;;;;10.68;62.94;102906.22;5100119;28;19915;-81
2024/01/28 12:45:20;;;;;;;;;;;;;;;10.74;62.10;102905.19;5099812;28;19916;-82
2024/01/28 12:48:12;;;;;;;;;;;;;;;10.86;62.34;102908.53;5100243;28;19915;-81
2024/01/28 12:51:04;;;;;;;;;;;;;;;10.89;62.14;102899.84;5100198;28;19912;-82
2024/01/28 12:53:57;;;;;;;;;;;;;;;10.98;62.11;102897.41;5085526;28;19916;-82
2024/01/28 12:56:48;;;;;;;;;;;;;;;11.07;61.83;102902.09;5096511;28;19912;-80
2024/01/28 12:59:38;;;;;;;;;;;;;;;11.10;61.92;102898.88;5099915;28;19911;-81
2024/01/28 13:02:28;;;;;;;;;;;;;;;11.30;62.04;102889.97;5099793;28;20380;-82
2024/01/28 13:05:20;;;;;;;;;;;;;;;11.46;61.30;102891.66;5099563;28;19912;-80
2024/01/28 13:08:12;;;;;;;;;;;;;;;11.38;60.39;102886.69;5099795;28;19916;-80
2024/01/28 13:11:04;;;;;;;;;;;;;;;11.44;60.37;102888.38;5099732;28;19912;-81
2024/01/28 13:13:53;;;;;;;;;;;;;;;11.50;59.81;102889.19;5099784;28;19912;-79
2024/01/28 13:16:46;;;;;;;;;;;;;;;11.52;59.46;102885.13;5096417;28;19920;-80
2024/01/28 13:19:38;;;;;;;;;;;;;;;11.64;59.25;102875.88;5099952;28;19908;-83
2024/01/28 13:22:30;;;;;;;;;;;;;;;11.69;59.55;102875.88;5099567;28;19912;-82
2024/01/28 13:25:19;;;;;;;;;;;;;;;11.80;59.83;102866.69;5102613;28;19915;-81
2024/01/28 13:28:11;;;;;;;;;;;;;;;11.91;59.53;102865.59;5106269;28;19920;-81
2024/01/28 13:30:58;;;;;;;;;;;;;;;11.94;58.64;102857.69;5106423;28;19912;-80
2024/01/28 13:33:50;;;;;;;;;;;;;;;12.05;58.49;102865.88;5106485;28;19912;-82
2024/01/28 13:36:42;;;;;;;;;;;;;;;11.98;57.63;102852.53;5103150;28;19912;-81
2024/01/28 13:39:34;;;;;;;;;;;;;;;12.02;57.61;102860.97;5106329;28;19912;-81
2024/01/28 13:42:29;;;;;;;;;;;;;;;12.05;57.06;102860.41;5106176;28;19912;-80
2024/01/28 13:45:21;;;;;;;;;;;;;;;12.10;57.13;102855.78;5104302;28;19912;-81
2024/01/28 13:48:13;;;;;;;;;;;;;;;12.12;56.57;102858.25;5106268;28;19919;-81
2024/01/28 13:51:03;;;;;;;;;;;;;;;12.20;56.65;102854.97;5106187;28;20292;-81
2024/01/28 13:53:55;;;;;;;;;;;;;;;12.22;56.59;102856.34;5106237;28;19916;-81
2024/01/28 13:56:44;;;;;;;;;;;;;;;12.18;56.74;102852.53;5101723;28;19912;-81
2024/01/28 13:59:33;;;;;;;;;;;;;;;12.23;56.61;102855.25;5105745;28;20308;-82
2024/01/28 14:02:25;;;;;;;;;;;;;;;12.31;55.98;102849.25;5106142;28;19911;-80
2024/01/28 14:05:17;;;;;;;;;;;;;;;12.29;55.80;102853.34;5105771;28;19912;-80
2024/01/28 14:08:06;;;;;;;;;;;;;;;12.20;56.23;102844.06;5106073;28;19920;-80
2024/01/28 14:10:58;;;;;;;;;;;;;;;12.27;56.20;102839.97;5106373;28;19912;-81
2024/01/28 14:13:48;;;;;;;;;;;;;;;12.23;55.78;102844.34;5105955;28;19912;-79
2024/01/28 14:16:37;;;;;;;;;;;;;;;12.29;55.62;102834.25;5102781;28;19916;-80
2024/01/28 14:19:29;;;;;;;;;;;;;;;12.33;55.32;102836.16;5105885;28;20296;-81
2024/01/28 14:22:21;;;;;;;;;;;;;;;12.33;55.19;102836.16;5105691;28;19916;-80
2024/01/28 14:25:13;;;;;;;;;;;;;;;12.43;54.60;102838.88;5105447;28;19912;-81
2024/01/28 14:28:03;;;;;;;;;;;;;;;12.37;54.34;102836.41;5099121;28;19916;-81
2024/01/28 14:30:53;;;;;;;;;;;;;;;12.42;54.53;102836.41;5105774;28;19915;-80
2024/01/28 14:33:45;;;;;;;;;;;;;;;12.40;55.09;102836.66;5102118;28;19916;-80
2024/01/28 14:36:41;;;;;;;;;;;;;;;12.40;55.16;102838.56;5098525;28;19912;-81
2024/01/28 14:39:33;;;;;;;;;;;;;;;12.35;55.88;102833.94;5102297;28;19912;-81
2024/01/28 14:42:20;;;;;;;;;;;;;;;12.29;55.32;102839.72;5099053;28;19912;-81
2024/01/28 14:45:12;;;;;;;;;;;;;;;12.20;55.60;102833.97;5101940;28;20304;-83
2024/01/28 14:48:03;;;;;;;;;;;;;;;12.24;55.35;102820.63;5095618;28;19938;-84
2024/01/28 14:50:55;;;;;;;;;;;;;;;12.28;55.28;102824.44;5098383;28;20380;-81